createdAt,value
2018-07-28T00:00:08.754Z,25.39
2018-07-28T00:02:36.880Z,25.35
2018-07-28T00:05:05.738Z,25.20
2018-07-28T00:07:33.823Z,25.08
2018-07-28T00:10:01.873Z,24.99
2018-07-28T00:12:29.954Z,25.03
2018-07-28T00:14:58.016Z,25.03
2018-07-28T00:17:26.090Z,24.92
2018-07-28T00:19:54.156Z,24.96
2018-07-28T00:22:22.239Z,24.81
2018-07-28T00:24:50.522Z,24.84
2018-07-28T00:27:18.598Z,24.76
2018-07-28T00:29:46.698Z,24.75
2018-07-28T00:32:14.750Z,24.40
2018-07-28T00:34:42.804Z,24.33
2018-07-28T00:37:10.923Z,24.36
2018-07-28T00:39:39.008Z,24.38
2018-07-28T00:42:07.069Z,24.29
2018-07-28T00:44:35.142Z,24.33
2018-07-28T00:47:03.246Z,24.24
2018-07-28T00:49:31.351Z,24.16
2018-07-28T00:51:59.434Z,23.96
2018-07-28T00:54:27.519Z,23.97
2018-07-28T00:56:55.575Z,24.00
2018-07-28T00:59:23.679Z,23.95
2018-07-28T01:01:51.732Z,23.92
2018-07-28T01:04:19.852Z,23.86
2018-07-28T01:06:47.919Z,23.60
2018-07-28T01:09:15.985Z,23.54
2018-07-28T01:11:44.050Z,23.48
2018-07-28T01:14:12.122Z,23.42
2018-07-28T01:16:40.195Z,23.38
2018-07-28T01:19:08.260Z,23.39
2018-07-28T01:21:36.659Z,23.39
2018-07-28T01:24:04.766Z,23.38
2018-07-28T01:26:32.814Z,23.30
2018-07-28T01:29:06.300Z,23.29
2018-07-28T01:31:34.384Z,23.28
2018-07-28T01:34:02.516Z,23.24
2018-07-28T01:36:30.552Z,23.19
2018-07-28T01:38:58.697Z,23.11
2018-07-28T01:41:26.767Z,23.07
2018-07-28T01:43:54.835Z,23.04
2018-07-28T01:46:22.913Z,22.92
2018-07-28T01:48:51.019Z,22.86
2018-07-28T01:51:19.093Z,22.89
2018-07-28T01:53:47.152Z,22.85
2018-07-28T01:56:15.224Z,22.81
2018-07-28T01:58:43.310Z,22.71
2018-07-28T02:01:11.370Z,22.78
2018-07-28T02:03:39.433Z,22.73
2018-07-28T02:06:07.545Z,22.73
2018-07-28T02:08:35.603Z,22.62
2018-07-28T02:11:03.689Z,22.58
2018-07-28T02:13:31.815Z,22.49
2018-07-28T02:15:59.862Z,22.42
2018-07-28T02:18:27.919Z,22.47
2018-07-28T02:20:55.974Z,22.43
2018-07-28T02:23:24.050Z,22.51
2018-07-28T02:25:52.102Z,22.45
2018-07-28T02:28:20.184Z,22.43
2018-07-28T02:30:48.222Z,22.46
2018-07-28T02:33:16.332Z,22.40
2018-07-28T02:35:44.387Z,22.48
2018-07-28T02:38:12.448Z,22.74
2018-07-28T02:40:40.523Z,22.59
2018-07-28T02:43:08.576Z,22.53
2018-07-28T02:45:36.647Z,22.47
2018-07-28T02:48:04.715Z,22.44
2018-07-28T02:50:32.794Z,22.38
2018-07-28T02:53:00.841Z,22.41
2018-07-28T02:55:28.891Z,22.28
2018-07-28T02:57:56.951Z,22.16
2018-07-28T03:00:25.065Z,22.13
2018-07-28T03:02:53.053Z,22.07
2018-07-28T03:05:21.112Z,21.97
2018-07-28T03:07:49.159Z,22.08
2018-07-28T03:10:17.250Z,21.97
2018-07-28T03:12:45.324Z,21.94
2018-07-28T03:15:24.594Z,21.86
2018-07-28T03:17:52.709Z,21.88
2018-07-28T03:20:20.774Z,21.84
2018-07-28T03:22:48.817Z,21.72
2018-07-28T03:25:16.884Z,21.80
2018-07-28T03:27:44.928Z,21.83
2018-07-28T03:30:12.996Z,21.79
2018-07-28T03:32:47.280Z,21.62
2018-07-28T03:35:15.337Z,21.55
2018-07-28T03:37:44.074Z,21.64
2018-07-28T03:40:12.194Z,21.69
2018-07-28T03:42:40.230Z,21.68
2018-07-28T03:45:09.476Z,21.73
2018-07-28T03:47:38.107Z,21.54
2018-07-28T03:50:06.286Z,21.60
2018-07-28T03:52:34.330Z,21.55
2018-07-28T03:55:02.488Z,21.56
2018-07-28T03:57:30.579Z,21.50
2018-07-28T03:59:58.621Z,21.49
2018-07-28T04:02:26.693Z,21.44
2018-07-28T04:04:54.767Z,21.37
2018-07-28T04:07:22.814Z,21.37
2018-07-28T04:09:51.044Z,21.44
2018-07-28T04:12:25.712Z,21.48
2018-07-28T04:14:53.767Z,21.50
2018-07-28T04:17:21.811Z,21.44
2018-07-28T04:19:49.882Z,21.33
2018-07-28T04:22:17.947Z,21.33
2018-07-28T04:24:45.989Z,21.25
2018-07-28T04:27:14.044Z,21.16
2018-07-28T04:29:42.097Z,21.13
2018-07-28T04:32:10.180Z,21.36
2018-07-28T04:34:38.220Z,21.43
2018-07-28T04:37:06.645Z,21.33
2018-07-28T04:39:34.670Z,21.37
2018-07-28T04:42:02.712Z,21.41
2018-07-28T04:44:30.780Z,21.61
2018-07-28T04:46:58.835Z,21.54
2018-07-28T04:49:26.911Z,21.54
2018-07-28T04:51:54.962Z,21.69
2018-07-28T04:54:23.042Z,21.83
2018-07-28T04:56:51.118Z,21.78
2018-07-28T04:59:19.245Z,21.85
2018-07-28T05:01:53.736Z,21.79
2018-07-28T05:04:21.816Z,21.91
2018-07-28T05:06:49.894Z,21.87
2018-07-28T05:09:17.939Z,21.89
2018-07-28T05:11:45.980Z,22.03
2018-07-28T05:14:14.033Z,22.15
2018-07-28T05:16:42.135Z,22.24
2018-07-28T05:19:10.232Z,22.24
2018-07-28T05:21:38.674Z,22.45
2018-07-28T05:24:06.850Z,22.47
2018-07-28T05:26:34.891Z,22.49
2018-07-28T05:29:02.957Z,22.60
2018-07-28T05:31:31.029Z,22.77
2018-07-28T05:33:59.079Z,22.82
2018-07-28T05:36:27.130Z,22.93
2018-07-28T05:38:55.254Z,22.96
2018-07-28T05:41:23.296Z,23.18
2018-07-28T05:43:51.342Z,23.30
2018-07-28T05:46:19.412Z,23.46
2018-07-28T05:48:47.485Z,23.58
2018-07-28T05:51:15.545Z,23.84
2018-07-28T05:53:43.582Z,24.01
2018-07-28T05:56:12.263Z,24.00
2018-07-28T05:58:41.453Z,24.18
2018-07-28T06:01:09.589Z,24.41
2018-07-28T06:03:37.644Z,24.51
2018-07-28T06:06:05.718Z,24.68
2018-07-28T06:08:33.772Z,24.78
2018-07-28T06:11:01.831Z,24.96
2018-07-28T06:13:29.897Z,25.00
2018-07-28T06:15:57.987Z,25.04
2018-07-28T06:18:26.071Z,25.21
2018-07-28T06:20:54.135Z,25.36
2018-07-28T06:23:22.202Z,25.66
2018-07-28T06:25:50.370Z,25.64
2018-07-28T06:28:18.371Z,25.75
2018-07-28T06:30:46.422Z,25.89
2018-07-28T06:33:14.506Z,25.92
2018-07-28T06:35:42.644Z,25.94
2018-07-28T06:38:10.715Z,25.80
2018-07-28T06:40:38.861Z,25.79
2018-07-28T06:43:07.102Z,25.81
2018-07-28T06:45:35.231Z,25.91
2018-07-28T06:48:03.319Z,26.24
2018-07-28T06:50:31.397Z,26.57
2018-07-28T06:53:00.474Z,26.74
2018-07-28T06:55:28.542Z,26.69
2018-07-28T06:57:56.994Z,26.91
2018-07-28T07:00:25.079Z,26.79
2018-07-28T07:02:53.276Z,26.75
2018-07-28T07:05:21.379Z,26.70
2018-07-28T07:07:49.739Z,26.61
2018-07-28T07:10:17.898Z,26.74
2018-07-28T07:12:45.982Z,26.64
2018-07-28T07:15:14.040Z,26.66
2018-07-28T07:17:42.097Z,26.73
2018-07-28T07:20:10.196Z,26.67
2018-07-28T07:22:38.243Z,26.65
2018-07-28T07:25:06.378Z,26.77
2018-07-28T07:27:34.426Z,26.76
2018-07-28T07:30:02.478Z,26.53
2018-07-28T07:32:30.544Z,26.62
2018-07-28T07:34:58.735Z,26.59
2018-07-28T07:37:26.819Z,26.71
2018-07-28T07:39:54.882Z,26.81
2018-07-28T07:42:22.982Z,26.88
2018-07-28T07:44:51.070Z,26.85
2018-07-28T07:47:19.160Z,27.20
2018-07-28T07:49:47.171Z,27.49
2018-07-28T07:52:15.232Z,27.60
2018-07-28T07:54:43.293Z,27.47
2018-07-28T07:57:11.436Z,27.24
2018-07-28T07:59:39.614Z,27.22
2018-07-28T08:02:07.662Z,27.28
2018-07-28T08:04:35.706Z,27.62
2018-07-28T08:07:03.816Z,27.66
2018-07-28T08:09:31.926Z,27.99
2018-07-28T08:12:00.087Z,28.00
2018-07-28T08:14:28.135Z,28.06
2018-07-28T08:16:56.486Z,28.27
2018-07-28T08:19:24.583Z,28.38
2018-07-28T08:21:53.009Z,28.39
2018-07-28T08:24:21.108Z,28.46
2018-07-28T08:26:49.285Z,28.40
2018-07-28T08:29:17.299Z,28.28
2018-07-28T08:31:45.351Z,28.19
2018-07-28T08:34:13.408Z,28.07
2018-07-28T08:36:41.445Z,28.01
2018-07-28T08:39:12.244Z,27.80
2018-07-28T08:41:40.602Z,27.69
2018-07-28T08:44:08.687Z,27.89
2018-07-28T08:46:42.779Z,27.83
2018-07-28T08:49:10.998Z,27.86
2018-07-28T08:51:39.168Z,27.69
2018-07-28T08:54:07.302Z,27.45
2018-07-28T08:56:35.370Z,27.40
2018-07-28T08:59:03.458Z,27.35
2018-07-28T09:01:31.835Z,27.50
2018-07-28T09:03:59.932Z,27.66
2018-07-28T09:06:27.987Z,27.61
2018-07-28T09:08:56.031Z,27.62
2018-07-28T09:11:24.138Z,27.70
2018-07-28T09:13:52.202Z,27.63
2018-07-28T09:16:20.382Z,27.58
2018-07-28T09:18:48.419Z,27.53
2018-07-28T09:21:16.504Z,27.52
2018-07-28T09:23:44.550Z,27.27
2018-07-28T09:26:12.603Z,27.27
2018-07-28T09:28:40.695Z,27.34
2018-07-28T09:31:08.767Z,27.60
2018-07-28T09:33:36.789Z,27.57
2018-07-28T09:36:05.105Z,27.65
2018-07-28T09:38:33.177Z,27.75
2018-07-28T09:41:01.474Z,27.90
2018-07-28T09:43:29.718Z,28.15
2018-07-28T09:45:57.831Z,28.35
2018-07-28T09:48:25.911Z,28.32
2018-07-28T09:50:53.966Z,28.47
2018-07-28T09:53:22.207Z,28.50
2018-07-28T09:55:50.302Z,28.78
2018-07-28T09:58:18.413Z,28.74
2018-07-28T10:00:51.778Z,29.00
2018-07-28T10:03:19.820Z,28.90
2018-07-28T10:05:48.068Z,29.04
2018-07-28T10:08:16.147Z,29.07
2018-07-28T10:10:45.135Z,28.99
2018-07-28T10:13:13.235Z,28.83
2018-07-28T10:15:41.327Z,28.83
2018-07-28T10:18:09.556Z,28.66
2018-07-28T10:20:37.756Z,28.73
2018-07-28T10:23:05.994Z,28.93
2018-07-28T10:25:35.379Z,28.94
2018-07-28T10:28:03.469Z,29.06
2018-07-28T10:30:43.597Z,29.10
2018-07-28T10:33:11.678Z,29.27
2018-07-28T10:35:39.730Z,29.38
2018-07-28T10:38:07.794Z,29.45
2018-07-28T10:40:35.852Z,29.40
2018-07-28T10:43:03.915Z,29.49
2018-07-28T10:45:32.009Z,29.36
2018-07-28T10:48:00.115Z,29.47
2018-07-28T10:50:28.184Z,29.59
2018-07-28T10:52:56.256Z,29.62
2018-07-28T10:55:24.349Z,29.59
2018-07-28T10:57:52.442Z,29.56
2018-07-28T11:00:20.582Z,29.91
2018-07-28T11:02:49.204Z,30.04
2018-07-28T11:05:17.271Z,30.24
2018-07-28T11:07:45.388Z,30.58
2018-07-28T11:10:13.510Z,30.76
2018-07-28T11:12:41.620Z,30.77
2018-07-28T11:15:09.998Z,30.70
2018-07-28T11:17:38.107Z,30.61
2018-07-28T11:20:08.199Z,30.43
2018-07-28T11:22:36.256Z,30.49
2018-07-28T11:25:04.554Z,30.60
2018-07-28T11:27:32.607Z,30.79
2018-07-28T11:30:00.642Z,30.91
2018-07-28T11:32:39.891Z,31.16
2018-07-28T11:35:19.094Z,30.96
2018-07-28T11:38:04.743Z,31.28
2018-07-28T11:40:45.500Z,31.40
2018-07-28T11:43:25.042Z,31.43
2018-07-28T11:45:53.181Z,31.30
2018-07-28T11:48:22.545Z,31.15
2018-07-28T11:50:50.639Z,31.17
2018-07-28T11:53:18.708Z,30.95
2018-07-28T11:55:46.934Z,30.82
2018-07-28T11:58:15.098Z,30.74
2018-07-28T12:00:43.027Z,31.14
2018-07-28T12:03:11.064Z,31.29
2018-07-28T12:05:39.101Z,31.47
2018-07-28T12:08:07.182Z,31.61
2018-07-28T12:10:35.211Z,31.64
2018-07-28T12:13:03.264Z,31.74
2018-07-28T12:15:31.349Z,31.88
2018-07-28T12:17:59.415Z,31.80
2018-07-28T12:20:27.466Z,31.96
2018-07-28T12:22:55.535Z,32.12
2018-07-28T12:25:23.599Z,32.19
2018-07-28T12:27:51.684Z,32.09
2018-07-28T12:30:19.769Z,32.16
2018-07-28T12:32:47.830Z,32.14
2018-07-28T12:35:15.895Z,31.81
2018-07-28T12:37:43.980Z,31.91
2018-07-28T12:40:12.016Z,32.03
2018-07-28T12:42:40.115Z,32.06
2018-07-28T12:45:08.254Z,31.74
2018-07-28T12:47:36.299Z,31.81
2018-07-28T12:50:04.481Z,31.97
2018-07-28T12:52:32.763Z,32.27
2018-07-28T12:55:01.285Z,32.00
2018-07-28T12:57:30.044Z,32.23
2018-07-28T12:59:58.113Z,32.28
2018-07-28T13:02:26.285Z,32.27
2018-07-28T13:04:55.009Z,32.24
2018-07-28T13:07:23.075Z,32.37
2018-07-28T13:09:51.156Z,32.41
2018-07-28T13:12:19.227Z,32.38
2018-07-28T13:15:07.173Z,32.42
2018-07-28T13:17:35.324Z,32.32
2018-07-28T13:20:03.393Z,32.26
2018-07-28T13:22:31.494Z,32.21
2018-07-28T13:24:59.568Z,32.38
2018-07-28T13:27:27.627Z,32.28
2018-07-28T13:29:56.169Z,32.24
2018-07-28T13:32:24.277Z,31.84
2018-07-28T13:34:52.370Z,31.79
2018-07-28T13:37:20.693Z,31.61
2018-07-28T13:39:48.759Z,31.29
2018-07-28T13:42:17.065Z,30.86
2018-07-28T13:44:45.119Z,29.95
2018-07-28T13:47:13.243Z,28.42
2018-07-28T13:49:41.405Z,27.66
2018-07-28T13:52:09.456Z,27.24
2018-07-28T13:54:37.668Z,27.01
2018-07-28T13:57:06.019Z,27.28
2018-07-28T13:59:34.175Z,27.91
2018-07-28T14:02:02.275Z,28.21
2018-07-28T14:04:30.335Z,28.06
2018-07-28T14:06:58.434Z,27.93
2018-07-28T14:09:26.478Z,27.85
2018-07-28T14:11:54.690Z,27.81
2018-07-28T14:14:23.856Z,28.10
2018-07-28T14:16:51.927Z,28.61
2018-07-28T14:19:19.974Z,28.78
2018-07-28T14:21:48.014Z,28.80
2018-07-28T14:24:16.084Z,28.70
2018-07-28T14:26:44.121Z,28.51
2018-07-28T14:29:12.464Z,28.56
2018-07-28T14:31:40.587Z,28.51
2018-07-28T14:34:08.656Z,28.20
2018-07-28T14:36:36.730Z,28.16
2018-07-28T14:39:07.381Z,28.30
2018-07-28T14:41:35.629Z,28.27
2018-07-28T14:44:03.674Z,28.40
2018-07-28T14:46:31.793Z,28.62
2018-07-28T14:48:59.856Z,28.66
2018-07-28T14:51:27.906Z,29.03
2018-07-28T14:53:55.982Z,29.06
2018-07-28T14:56:24.089Z,29.21
2018-07-28T14:58:52.136Z,29.29
2018-07-28T15:01:20.248Z,29.09
2018-07-28T15:03:48.302Z,29.03
2018-07-28T15:06:16.365Z,28.88
2018-07-28T15:08:44.419Z,29.02
2018-07-28T15:11:12.474Z,29.02
2018-07-28T15:13:40.539Z,29.03
2018-07-28T15:16:08.723Z,28.90
2018-07-28T15:18:36.779Z,28.76
2018-07-28T15:21:04.843Z,28.87
2018-07-28T15:23:32.944Z,28.94
2018-07-28T15:26:01.077Z,29.17
2018-07-28T15:28:29.141Z,29.49
2018-07-28T15:30:57.220Z,29.69
2018-07-28T15:33:25.287Z,29.82
2018-07-28T15:35:53.363Z,29.96
2018-07-28T15:38:21.406Z,30.28
2018-07-28T15:40:49.489Z,30.35
2018-07-28T15:43:17.535Z,30.48
2018-07-28T15:45:45.655Z,30.52
2018-07-28T15:48:13.794Z,30.21
2018-07-28T15:50:41.850Z,30.14
2018-07-28T15:53:09.934Z,30.42
2018-07-28T15:55:38.001Z,30.45
2018-07-28T15:58:06.255Z,30.43
2018-07-28T16:00:34.412Z,30.56
2018-07-28T16:03:02.535Z,30.65
2018-07-28T16:05:30.587Z,30.60
2018-07-28T16:07:58.700Z,30.47
2018-07-28T16:10:26.726Z,30.48
2018-07-28T16:12:54.803Z,30.27
2018-07-28T16:15:22.842Z,30.35
2018-07-28T16:17:50.947Z,30.29
2018-07-28T16:20:19.006Z,30.13
2018-07-28T16:22:47.906Z,30.09
2018-07-28T16:25:16.037Z,30.21
2018-07-28T16:27:45.193Z,30.39
2018-07-28T16:30:13.238Z,30.59
2018-07-28T16:32:41.395Z,30.61
2018-07-28T16:35:09.457Z,30.53
2018-07-28T16:37:37.541Z,30.56
2018-07-28T16:40:05.681Z,30.55
2018-07-28T16:42:33.740Z,30.47
2018-07-28T16:45:01.771Z,30.29
2018-07-28T16:47:29.855Z,30.26
2018-07-28T16:49:57.923Z,30.20
2018-07-28T16:52:26.157Z,30.02
2018-07-28T16:54:54.196Z,29.92
2018-07-28T16:57:22.539Z,30.08
2018-07-28T16:59:50.670Z,30.41
2018-07-28T17:02:18.755Z,30.35
2018-07-28T17:04:46.915Z,30.37
2018-07-28T17:07:15.040Z,30.37
2018-07-28T17:09:43.903Z,30.28
2018-07-28T17:12:11.976Z,30.09
2018-07-28T17:14:40.015Z,30.20
2018-07-28T17:17:08.088Z,30.12
2018-07-28T17:19:36.153Z,30.25
2018-07-28T17:22:04.235Z,30.01
2018-07-28T17:24:32.315Z,29.91
2018-07-28T17:27:00.363Z,29.87
2018-07-28T17:29:28.454Z,29.74
2018-07-28T17:31:56.502Z,29.77
2018-07-28T17:34:25.542Z,29.77
2018-07-28T17:36:53.594Z,29.76
2018-07-28T17:39:21.712Z,29.53
2018-07-28T17:41:49.939Z,29.40
2018-07-28T17:44:18.090Z,29.44
2018-07-28T17:46:46.207Z,29.38
2018-07-28T17:49:14.990Z,29.30
2018-07-28T17:51:43.164Z,29.20
2018-07-28T17:54:11.371Z,29.16
2018-07-28T17:56:39.437Z,29.19
2018-07-28T17:59:07.485Z,29.13
2018-07-28T18:01:35.538Z,29.11
2018-07-28T18:04:03.634Z,29.16
2018-07-28T18:06:31.801Z,29.14
2018-07-28T18:09:04.840Z,29.06
2018-07-28T18:11:32.985Z,29.20
2018-07-28T18:14:01.136Z,29.18
2018-07-28T18:16:29.940Z,29.13
2018-07-28T18:18:58.072Z,29.13
2018-07-28T18:21:26.791Z,29.01
2018-07-28T18:23:55.009Z,28.93
2018-07-28T18:26:23.136Z,28.95
2018-07-28T18:28:51.326Z,28.96
2018-07-28T18:31:19.449Z,28.83
2018-07-28T18:33:47.573Z,28.76
2018-07-28T18:36:15.824Z,28.70
2018-07-28T18:38:43.944Z,28.57
2018-07-28T18:41:12.879Z,28.53
2018-07-28T18:43:41.025Z,28.50
2018-07-28T18:46:25.990Z,28.42
2018-07-28T18:48:54.566Z,28.22
2018-07-28T18:51:22.910Z,28.28
2018-07-28T18:53:51.059Z,28.29
2018-07-28T18:56:19.180Z,28.11
2018-07-28T18:58:47.229Z,28.02
2018-07-28T19:01:15.505Z,27.89
2018-07-28T19:03:43.793Z,27.79
2018-07-28T19:06:11.970Z,27.76
2018-07-28T19:08:40.351Z,27.45
2018-07-28T19:11:09.973Z,27.53
2018-07-28T19:13:44.311Z,27.56
2018-07-28T19:16:12.464Z,27.46
2018-07-28T19:18:46.573Z,27.35
2018-07-28T19:21:14.696Z,27.24
2018-07-28T19:23:48.503Z,27.20
2018-07-28T19:26:17.224Z,27.17
2018-07-28T19:28:50.624Z,27.09
2018-07-28T19:31:18.723Z,26.84
2018-07-28T19:33:46.847Z,26.85
2018-07-28T19:36:20.836Z,26.79
2018-07-28T19:38:49.170Z,26.74
2018-07-28T19:41:17.537Z,26.78
2018-07-28T19:43:46.541Z,26.66
2018-07-28T19:46:18.434Z,26.60
2018-07-28T19:48:47.722Z,26.50
2018-07-28T19:51:16.127Z,26.35
2018-07-28T19:53:45.365Z,26.33
2018-07-28T19:56:14.075Z,26.38
2018-07-28T19:58:44.018Z,26.45
2018-07-28T20:01:12.535Z,26.34
2018-07-28T20:03:47.666Z,26.30
2018-07-28T20:06:19.734Z,26.06
2018-07-28T20:08:49.719Z,26.21
2018-07-28T20:11:18.092Z,26.09
2018-07-28T20:13:46.464Z,26.06
2018-07-28T20:16:14.988Z,25.98
2018-07-28T20:18:44.024Z,25.85
2018-07-28T20:21:15.236Z,25.74
2018-07-28T20:23:44.254Z,25.62
2018-07-28T20:26:12.593Z,25.50
2018-07-28T20:28:40.823Z,25.54
2018-07-28T20:31:09.197Z,25.56
2018-07-28T20:33:37.453Z,25.54
2018-07-28T20:36:07.812Z,25.54
2018-07-28T20:38:37.479Z,25.56
2018-07-28T20:41:06.522Z,25.49
2018-07-28T20:43:36.912Z,25.31
2018-07-28T20:46:05.285Z,25.49
2018-07-28T20:48:33.528Z,25.42
2018-07-28T20:51:02.746Z,25.36
2018-07-28T20:53:31.963Z,25.43
2018-07-28T20:56:00.888Z,25.20
2018-07-28T20:58:32.526Z,25.15
2018-07-28T21:01:04.208Z,25.08
2018-07-28T21:03:34.745Z,25.00
2018-07-28T21:06:02.907Z,25.09
2018-07-28T21:08:31.439Z,24.92
2018-07-28T21:10:59.839Z,24.95
2018-07-28T21:13:27.968Z,24.93
2018-07-28T21:15:56.339Z,24.86
2018-07-28T21:18:24.719Z,24.79
2018-07-28T21:20:52.881Z,24.72
2018-07-28T21:23:21.037Z,24.74
2018-07-28T21:25:49.115Z,24.66
2018-07-28T21:28:17.223Z,24.66
2018-07-28T21:30:45.395Z,24.59
2018-07-28T21:33:13.528Z,24.55
2018-07-28T21:35:41.642Z,24.55
2018-07-28T21:38:09.781Z,24.47
2018-07-28T21:40:37.910Z,24.41
2018-07-28T21:43:06.035Z,24.31
2018-07-28T21:45:34.147Z,24.28
2018-07-28T21:48:02.233Z,24.25
2018-07-28T21:50:30.457Z,24.22
2018-07-28T21:52:58.542Z,24.18
2018-07-28T21:55:26.678Z,24.12
2018-07-28T21:57:54.834Z,23.94
2018-07-28T22:00:23.124Z,23.96
2018-07-28T22:02:51.282Z,24.02
2018-07-28T22:05:20.279Z,23.94
2018-07-28T22:07:49.373Z,23.85
2018-07-28T22:10:17.505Z,23.57
2018-07-28T22:12:45.627Z,23.54
2018-07-28T22:15:13.753Z,23.62
2018-07-28T22:17:41.936Z,23.49
2018-07-28T22:20:10.144Z,23.47
2018-07-28T22:22:38.367Z,23.42
2018-07-28T22:25:06.448Z,23.48
2018-07-28T22:27:34.560Z,23.51
2018-07-28T22:30:02.707Z,23.43
2018-07-28T22:32:30.835Z,23.39
2018-07-28T22:34:58.992Z,23.41
2018-07-28T22:37:27.142Z,23.33
2018-07-28T22:39:55.190Z,23.37
2018-07-28T22:42:33.246Z,23.35
2018-07-28T22:45:01.302Z,23.27
2018-07-28T22:47:29.353Z,23.29
2018-07-28T22:49:57.502Z,23.23
2018-07-28T22:52:25.561Z,23.17
2018-07-28T22:54:53.767Z,23.05
2018-07-28T22:57:21.980Z,23.02
2018-07-28T22:59:50.063Z,22.90
2018-07-28T23:02:18.262Z,22.72
2018-07-28T23:04:46.303Z,22.52
2018-07-28T23:07:14.556Z,22.38
2018-07-28T23:09:43.419Z,22.25
2018-07-28T23:12:11.470Z,22.35
2018-07-28T23:14:39.523Z,22.23
2018-07-28T23:17:07.591Z,22.13
2018-07-28T23:19:35.664Z,22.08
2018-07-28T23:22:03.811Z,21.96
2018-07-28T23:24:31.867Z,21.89
2018-07-28T23:26:59.935Z,21.87
2018-07-28T23:29:27.990Z,21.74
2018-07-28T23:31:56.103Z,21.73
2018-07-28T23:34:24.134Z,21.74
2018-07-28T23:36:52.195Z,21.73
2018-07-28T23:39:20.242Z,21.55
2018-07-28T23:41:48.331Z,21.52
2018-07-28T23:44:16.380Z,21.66
2018-07-28T23:46:44.481Z,21.74
2018-07-28T23:49:12.530Z,21.81
2018-07-28T23:51:40.668Z,21.82
2018-07-28T23:54:08.673Z,21.80
2018-07-28T23:56:36.724Z,21.72
2018-07-28T23:59:04.923Z,21.70
